createdAt,value
2018-10-01T00:01:18.290Z,6.80
2018-10-01T00:03:46.544Z,6.77
2018-10-01T00:06:15.000Z,6.33
2018-10-01T00:08:43.171Z,7.20
2018-10-01T00:15:39.834Z,6.70
2018-10-01T00:18:08.597Z,7.67
2018-10-01T00:20:42.095Z,6.80
2018-10-01T00:23:10.265Z,6.73
2018-10-01T00:25:39.021Z,7.37
2018-10-01T00:28:07.529Z,6.93
2018-10-01T00:35:05.029Z,6.80
2018-10-01T00:46:44.893Z,7.33
2018-10-01T00:49:13.348Z,7.90
2018-10-01T00:55:19.724Z,7.10
2018-10-01T00:57:51.163Z,8.10
2018-10-01T01:00:19.447Z,7.80
2018-10-01T01:02:52.846Z,8.03
2018-10-01T01:05:21.017Z,7.23
2018-10-01T01:07:54.581Z,7.20
2018-10-01T01:10:23.972Z,7.03
2018-10-01T01:13:00.013Z,7.57
2018-10-01T01:15:28.273Z,6.73
2018-10-01T01:18:02.322Z,6.67
2018-10-01T01:20:31.287Z,6.87
2018-10-01T01:23:06.454Z,6.10
2018-10-01T01:25:34.657Z,6.97
2018-10-01T01:28:09.697Z,6.30
2018-10-01T01:30:37.901Z,6.47
2018-10-01T01:33:12.821Z,6.43
2018-10-01T01:35:41.772Z,5.77
2018-10-01T01:38:14.881Z,6.00
2018-10-01T01:40:43.385Z,6.53
2018-10-01T01:43:17.715Z,6.03
2018-10-01T01:45:46.643Z,6.23
2018-10-01T01:48:19.246Z,6.53
2018-10-01T01:50:48.834Z,6.17
2018-10-01T01:53:30.468Z,5.90
2018-10-01T01:55:58.928Z,6.90
2018-10-01T01:58:27.147Z,5.70
2018-10-01T02:00:55.678Z,6.00
2018-10-01T02:03:26.605Z,5.77
2018-10-01T02:05:55.435Z,6.13
2018-10-01T02:08:28.360Z,6.20
2018-10-01T02:10:56.848Z,5.30
2018-10-01T02:13:32.089Z,5.00
2018-10-01T02:16:00.427Z,5.40
2018-10-01T02:18:33.251Z,5.33
2018-10-01T02:21:01.452Z,5.03
2018-10-01T02:28:03.596Z,4.83
2018-10-01T02:30:37.008Z,5.13
2018-10-01T02:33:05.638Z,4.33
2018-10-01T02:35:33.945Z,5.03
2018-10-01T02:38:02.416Z,5.00
2018-10-01T02:40:30.608Z,5.10
2018-10-01T02:42:59.128Z,5.57
2018-10-01T02:45:27.608Z,5.03
2018-10-01T02:47:56.099Z,5.30
2018-10-01T02:50:24.310Z,5.47
2018-10-01T02:52:58.200Z,5.83
2018-10-01T02:55:27.934Z,6.10
2018-10-01T03:02:29.572Z,7.53
2018-10-01T03:04:58.031Z,8.20
2018-10-01T03:07:26.207Z,8.83
2018-10-01T03:14:28.184Z,8.00
2018-10-01T03:16:56.674Z,8.27
2018-10-01T03:35:41.129Z,8.57
2018-10-01T03:40:42.808Z,8.70
2018-10-01T03:43:15.953Z,9.07
2018-10-01T03:45:44.578Z,8.80
2018-10-01T03:48:12.744Z,9.30
2018-10-01T03:50:41.261Z,8.97
2018-10-01T03:53:09.460Z,10.03
2018-10-01T03:55:38.727Z,9.40
2018-10-01T03:58:06.911Z,9.27
2018-10-01T04:00:35.092Z,9.57
2018-10-01T04:03:04.299Z,10.23
2018-10-01T04:05:32.434Z,9.07
2018-10-01T04:08:00.633Z,10.00
2018-10-01T04:10:33.721Z,9.23
2018-10-01T04:13:02.001Z,9.60
2018-10-01T04:15:36.816Z,9.70
2018-10-01T04:18:05.276Z,9.47
2018-10-01T04:20:36.497Z,10.43
2018-10-01T04:23:05.232Z,9.20
2018-10-01T04:25:44.454Z,9.77
2018-10-01T04:28:13.437Z,10.47
2018-10-01T04:30:41.649Z,10.27
2018-10-01T04:33:10.834Z,9.73
2018-10-01T04:35:44.588Z,9.13
2018-10-01T04:38:13.564Z,9.73
2018-10-01T04:40:48.083Z,8.87
2018-10-01T04:43:16.389Z,8.70
2018-10-01T04:45:50.389Z,7.90
2018-10-01T04:48:18.565Z,8.20
2018-10-01T04:50:56.919Z,8.23
2018-10-01T04:53:26.690Z,8.73
2018-10-01T04:55:55.481Z,8.33
2018-10-01T04:58:23.892Z,8.53
2018-10-01T05:03:30.751Z,7.77
2018-10-01T05:10:31.623Z,8.47
2018-10-01T05:13:05.787Z,7.83
2018-10-01T05:15:34.685Z,6.90
2018-10-01T05:18:05.977Z,7.50
2018-10-01T05:20:37.703Z,7.63
2018-10-01T05:23:15.710Z,6.87
2018-10-01T05:28:17.298Z,6.80
2018-10-01T05:30:47.519Z,7.80
2018-10-01T05:33:17.806Z,7.53
2018-10-01T05:35:48.025Z,7.07
2018-10-01T05:38:19.828Z,7.33
2018-10-01T05:40:50.687Z,7.17
2018-10-01T05:43:23.673Z,7.13
2018-10-01T05:45:52.366Z,6.80
2018-10-01T05:48:24.531Z,6.70
2018-10-01T05:50:52.769Z,6.87
2018-10-01T05:53:26.224Z,6.07
2018-10-01T05:58:19.812Z,5.20
2018-10-01T06:00:48.028Z,5.30
2018-10-01T06:08:39.379Z,4.90
2018-10-01T06:11:08.124Z,4.73
2018-10-01T06:13:37.867Z,4.57
2018-10-01T06:16:06.802Z,4.43
2018-10-01T06:18:40.672Z,4.43
2018-10-01T06:21:11.670Z,4.83
2018-10-01T06:23:41.602Z,3.77
2018-10-01T06:26:10.194Z,3.57
2018-10-01T06:28:43.916Z,3.03
2018-10-01T06:31:12.116Z,3.00
2018-10-01T06:38:55.999Z,3.00
2018-10-01T06:41:27.217Z,2.70
2018-10-01T06:44:15.187Z,3.87
2018-10-01T06:46:43.475Z,2.97
2018-10-01T06:49:12.070Z,2.83
2018-10-01T06:51:45.950Z,3.93
2018-10-01T06:54:17.134Z,2.67
2018-10-01T06:56:45.435Z,3.47
2018-10-01T07:01:49.336Z,2.53
2018-10-01T07:04:18.283Z,3.00
2018-10-01T07:06:51.601Z,3.50
2018-10-01T07:09:22.119Z,3.90
2018-10-01T07:39:04.999Z,2.53
2018-10-01T07:41:33.966Z,2.57
2018-10-01T07:44:02.528Z,1.97
2018-10-01T07:46:30.749Z,1.80
2018-10-01T07:48:59.734Z,1.83
2018-10-01T07:54:04.239Z,1.50
2018-10-01T08:01:11.695Z,1.63
2018-10-01T08:08:09.524Z,1.87
2018-10-01T08:15:09.253Z,2.03
2018-10-01T08:26:52.857Z,1.37
2018-10-01T08:34:05.353Z,1.60
2018-10-01T08:36:33.627Z,1.63
2018-10-01T08:39:01.941Z,1.23
2018-10-01T08:41:30.531Z,1.43
2018-10-01T08:46:44.065Z,1.87
2018-10-01T08:49:17.074Z,1.30
2018-10-01T08:51:54.646Z,1.93
2018-10-01T08:54:29.565Z,1.23
2018-10-01T08:56:58.229Z,1.97
2018-10-01T08:59:27.001Z,1.37
2018-10-01T09:01:55.538Z,1.20
2018-10-01T09:04:24.204Z,1.57
2018-10-01T09:06:52.832Z,2.17
2018-10-01T09:09:22.121Z,1.40
2018-10-01T09:11:52.737Z,1.30
2018-10-01T09:14:20.963Z,1.00
2018-10-01T09:20:04.827Z,1.13
2018-10-01T09:22:34.829Z,1.17
2018-10-01T09:25:03.077Z,1.60
2018-10-01T09:27:31.293Z,1.20
2018-10-01T09:29:59.872Z,2.07
2018-10-01T09:32:28.219Z,1.33
2018-10-01T09:34:59.193Z,1.20
2018-10-01T09:37:30.994Z,1.80
2018-10-01T09:39:59.604Z,2.00
2018-10-01T09:42:31.324Z,1.20
2018-10-01T09:44:59.870Z,1.10
2018-10-01T09:47:33.612Z,1.17
2018-10-01T09:50:03.112Z,1.20
2018-10-01T09:52:36.901Z,1.70
2018-10-01T09:55:05.630Z,1.60
2018-10-01T09:57:38.481Z,1.40
2018-10-01T10:00:07.868Z,1.43
2018-10-01T10:02:48.819Z,1.77
2018-10-01T10:07:43.840Z,2.70
2018-10-01T10:10:12.522Z,1.60
2018-10-01T10:12:46.358Z,1.50
2018-10-01T10:17:41.064Z,1.50
2018-10-01T10:20:10.066Z,1.50
2018-10-01T10:22:38.652Z,1.73
2018-10-01T10:25:07.510Z,1.90
2018-10-01T10:27:36.503Z,1.40
2018-10-01T10:30:05.275Z,1.80
2018-10-01T10:32:34.033Z,1.97
2018-10-01T10:35:02.841Z,1.70
2018-10-01T10:37:31.045Z,1.53
2018-10-01T10:40:02.821Z,1.57
2018-10-01T10:42:31.507Z,1.83
2018-10-01T10:45:05.212Z,1.70
2018-10-01T10:47:33.838Z,2.00
2018-10-01T10:50:07.901Z,2.67
2018-10-01T10:52:36.090Z,2.23
2018-10-01T10:55:08.238Z,2.10
2018-10-01T10:57:38.670Z,2.77
2018-10-01T11:00:07.115Z,2.27
2018-10-01T11:02:36.095Z,2.00
2018-10-01T11:05:04.297Z,1.90
2018-10-01T11:07:32.801Z,1.77
2018-10-01T11:10:01.761Z,1.67
2018-10-01T11:15:05.395Z,1.00
2018-10-01T11:17:33.605Z,1.00
2018-10-01T11:20:04.723Z,1.00
2018-10-01T11:22:33.493Z,0.60
2018-10-01T11:25:02.222Z,0.83
2018-10-01T11:27:32.464Z,0.90
2018-10-01T11:30:09.479Z,1.20
2018-10-01T11:32:37.700Z,1.00
2018-10-01T11:35:06.382Z,1.40
2018-10-01T11:37:38.111Z,1.30
2018-10-01T11:40:06.403Z,1.27
2018-10-01T11:42:44.601Z,1.30
2018-10-01T11:45:14.468Z,1.60
2018-10-01T11:47:43.681Z,1.87
2018-10-01T11:50:12.743Z,1.27
2018-10-01T11:52:45.432Z,1.20
2018-10-01T11:55:13.979Z,1.10
2018-10-01T11:57:42.251Z,1.43
2018-10-01T12:00:11.257Z,1.57
2018-10-01T12:02:39.787Z,1.37
2018-10-01T12:05:08.568Z,1.37
2018-10-01T12:07:37.016Z,2.33
2018-10-01T12:10:05.730Z,1.80
2018-10-01T12:12:34.197Z,1.57
2018-10-01T12:15:04.756Z,1.80
2018-10-01T12:17:32.925Z,2.13
2018-10-01T12:20:05.508Z,1.40
2018-10-01T12:22:34.128Z,2.33
2018-10-01T12:25:02.697Z,3.40
2018-10-01T12:27:31.400Z,2.00
2018-10-01T12:29:59.844Z,2.83
2018-10-01T12:32:28.459Z,1.70
2018-10-01T12:34:56.661Z,1.77
2018-10-01T12:37:25.482Z,3.40
2018-10-01T12:39:53.664Z,1.50
2018-10-01T12:42:21.925Z,2.97
2018-10-01T12:44:50.205Z,1.40
2018-10-01T12:47:31.300Z,1.63
2018-10-01T12:50:00.087Z,2.00
2018-10-01T12:52:28.316Z,1.73
2018-10-01T12:54:56.519Z,1.70
2018-10-01T12:57:26.969Z,2.43
2018-10-01T12:59:55.181Z,2.10
2018-10-01T13:02:29.284Z,2.23
2018-10-01T13:04:58.177Z,2.27
2018-10-01T13:07:33.242Z,1.77
2018-10-01T13:10:01.788Z,2.53
2018-10-01T13:12:34.207Z,2.03
2018-10-01T13:15:16.590Z,2.10
2018-10-01T13:17:45.153Z,2.20
2018-10-01T13:20:13.375Z,3.83
2018-10-01T13:22:41.553Z,2.40
2018-10-01T13:25:10.997Z,2.00
2018-10-01T13:27:40.744Z,1.97
2018-10-01T13:30:09.183Z,2.13
2018-10-01T13:32:42.796Z,2.10
2018-10-01T13:35:11.315Z,2.20
2018-10-01T13:40:14.829Z,2.87
2018-10-01T13:42:47.076Z,3.13
2018-10-01T13:45:15.529Z,2.50
2018-10-01T13:47:44.086Z,3.50
2018-10-01T13:50:12.317Z,2.60
2018-10-01T13:52:40.977Z,1.83
2018-10-01T13:55:09.587Z,2.27
2018-10-01T13:57:37.800Z,2.37
2018-10-01T14:00:06.801Z,2.30
2018-10-01T14:02:35.336Z,3.40
2018-10-01T14:05:04.041Z,3.10
2018-10-01T14:07:32.288Z,2.53
2018-10-01T14:10:13.019Z,2.50
2018-10-01T14:12:41.732Z,2.50
2018-10-01T14:15:09.956Z,3.23
2018-10-01T14:17:38.599Z,2.67
2018-10-01T14:20:13.814Z,2.00
2018-10-01T14:22:42.329Z,2.17
2018-10-01T14:25:13.805Z,1.83
2018-10-01T14:27:42.221Z,1.47
2018-10-01T14:30:14.587Z,1.73
2018-10-01T14:32:42.795Z,2.17
2018-10-01T14:35:30.203Z,1.60
2018-10-01T14:38:02.115Z,2.33
2018-10-01T14:40:30.925Z,2.77
2018-10-01T14:42:59.117Z,1.87
2018-10-01T14:45:27.349Z,2.87
2018-10-01T14:48:03.695Z,2.13
2018-10-01T14:50:33.023Z,2.43
2018-10-01T14:53:01.234Z,2.20
2018-10-01T14:55:30.052Z,6.13
2018-10-01T14:57:58.618Z,2.70
2018-10-01T15:00:30.756Z,2.90
2018-10-01T15:02:59.228Z,2.40
2018-10-01T15:05:33.863Z,1.80
2018-10-01T15:08:02.132Z,2.10
2018-10-01T15:10:35.308Z,2.33
2018-10-01T15:13:03.840Z,2.20
2018-10-01T15:15:48.560Z,2.53
2018-10-01T15:18:17.100Z,2.10
2018-10-01T15:20:45.626Z,1.87
2018-10-01T15:23:14.207Z,2.00
2018-10-01T15:25:43.671Z,2.33
2018-10-01T15:28:12.240Z,2.13
2018-10-01T15:30:45.189Z,2.13
2018-10-01T15:33:13.740Z,2.30
2018-10-01T15:35:42.653Z,2.37
2018-10-01T15:38:18.139Z,2.27
2018-10-01T15:40:51.306Z,1.70
2018-10-01T15:43:19.513Z,2.00
2018-10-01T15:45:53.198Z,2.20
2018-10-01T15:48:22.010Z,1.50
2018-10-01T15:50:54.426Z,1.60
2018-10-01T15:53:22.634Z,1.53
2018-10-01T15:55:51.143Z,1.77
2018-10-01T15:58:19.633Z,1.73
2018-10-01T16:00:48.298Z,1.50
2018-10-01T16:03:17.022Z,1.50
2018-10-01T16:05:45.234Z,1.50
2018-10-01T16:08:13.417Z,1.60
2018-10-01T16:10:42.890Z,1.50
2018-10-01T16:13:11.585Z,1.77
2018-10-01T16:15:40.090Z,1.70
2018-10-01T16:18:13.591Z,1.50
2018-10-01T16:20:41.760Z,2.67
2018-10-01T16:23:14.186Z,1.30
2018-10-01T16:25:42.737Z,1.60
2018-10-01T16:28:10.918Z,2.33
2018-10-01T16:30:39.697Z,1.77
2018-10-01T16:33:08.430Z,1.70
2018-10-01T16:35:37.130Z,1.47
2018-10-01T16:38:05.746Z,2.00
2018-10-01T16:40:34.597Z,1.80
2018-10-01T16:43:02.768Z,1.53
2018-10-01T16:45:30.965Z,1.53
2018-10-01T16:48:00.305Z,1.60
2018-10-01T16:50:30.120Z,2.00
2018-10-01T16:52:58.329Z,1.93
2018-10-01T16:55:31.556Z,1.70
2018-10-01T16:57:59.843Z,2.00
2018-10-01T17:00:32.785Z,2.07
2018-10-01T17:03:01.337Z,1.67
2018-10-01T17:05:29.513Z,1.90
2018-10-01T17:07:58.298Z,1.97
2018-10-01T17:10:26.803Z,2.00
2018-10-01T17:12:54.990Z,1.90
2018-10-01T17:15:23.541Z,1.80
2018-10-01T17:17:52.065Z,2.00
2018-10-01T17:20:20.517Z,2.27
2018-10-01T17:22:49.117Z,2.37
2018-10-01T17:25:25.777Z,1.90
2018-10-01T17:27:55.326Z,2.80
2018-10-01T17:30:23.957Z,2.13
2018-10-01T17:32:52.472Z,2.20
2018-10-01T17:35:20.921Z,1.80
2018-10-01T17:37:54.707Z,1.87
2018-10-01T17:40:22.938Z,2.03
2018-10-01T17:42:56.644Z,2.17
2018-10-01T17:45:33.973Z,2.40
2018-10-01T17:48:02.982Z,1.97
2018-10-01T17:50:31.207Z,1.77
2018-10-01T17:53:12.384Z,2.10
2018-10-01T17:55:41.834Z,2.83
2018-10-01T17:58:10.448Z,3.03
2018-10-01T18:00:38.680Z,4.80
2018-10-01T18:03:11.059Z,2.40
2018-10-01T18:05:39.320Z,2.33
2018-10-01T18:08:20.712Z,2.17
2018-10-01T18:10:49.193Z,2.00
2018-10-01T18:13:17.413Z,2.10
2018-10-01T18:15:45.677Z,2.37
2018-10-01T18:18:17.333Z,2.60
2018-10-01T18:20:45.827Z,2.00
2018-10-01T18:23:19.133Z,3.33
2018-10-01T18:25:47.612Z,1.77
2018-10-01T18:28:22.489Z,2.27
2018-10-01T18:30:50.729Z,2.47
2018-10-01T18:33:24.140Z,2.60
2018-10-01T18:35:52.708Z,2.33
2018-10-01T18:38:26.048Z,2.40
2018-10-01T18:40:55.515Z,3.27
2018-10-01T18:43:32.272Z,2.37
2018-10-01T18:46:00.764Z,2.87
2018-10-01T18:48:32.419Z,2.00
2018-10-01T18:51:01.064Z,2.67
2018-10-01T18:53:34.799Z,2.50
2018-10-01T18:56:03.368Z,1.87
2018-10-01T18:58:36.311Z,2.60
2018-10-01T19:01:04.582Z,2.00
2018-10-01T19:06:08.417Z,2.33
2018-10-01T19:08:41.009Z,2.40
2018-10-01T19:11:09.549Z,2.40
2018-10-01T19:13:42.053Z,2.63
2018-10-01T19:16:10.264Z,2.20
2018-10-01T19:18:38.596Z,2.40
2018-10-01T19:21:07.102Z,2.50
2018-10-01T19:23:35.593Z,2.63
2018-10-01T19:26:03.796Z,2.73
2018-10-01T19:28:32.673Z,2.63
2018-10-01T19:31:00.873Z,2.90
2018-10-01T19:33:29.472Z,3.33
2018-10-01T19:35:57.996Z,2.80
2018-10-01T19:38:26.481Z,2.97
2018-10-01T19:40:59.611Z,2.63
2018-10-01T19:43:28.136Z,3.07
2018-10-01T19:46:01.689Z,2.80
2018-10-01T19:48:31.053Z,2.87
2018-10-01T19:51:03.577Z,3.10
2018-10-01T19:53:31.759Z,3.50
2018-10-01T19:56:00.008Z,2.93
2018-10-01T19:58:28.818Z,3.10
2018-10-01T20:00:57.085Z,2.90
2018-10-01T20:03:25.420Z,2.97
2018-10-01T20:05:53.865Z,3.13
2018-10-01T20:08:22.388Z,3.00
2018-10-01T20:10:51.327Z,3.00
2018-10-01T20:13:20.064Z,2.83
2018-10-01T20:15:48.316Z,2.77
2018-10-01T20:18:20.602Z,2.63
2018-10-01T20:20:49.820Z,3.23
2018-10-01T20:23:21.972Z,2.63
2018-10-01T20:25:50.222Z,2.47
2018-10-01T20:30:51.857Z,3.20
2018-10-01T20:35:54.405Z,3.30
2018-10-01T20:38:22.620Z,3.27
2018-10-01T20:40:51.135Z,2.63
2018-10-01T20:43:19.653Z,3.40
2018-10-01T20:45:48.186Z,3.63
2018-10-01T20:48:16.401Z,2.90
2018-10-01T20:50:47.325Z,3.20
2018-10-01T20:53:15.564Z,3.20
2018-10-01T20:55:44.157Z,2.60
2018-10-01T20:58:12.807Z,3.10
2018-10-01T21:00:42.889Z,2.60
2018-10-01T21:03:11.378Z,2.83
2018-10-01T21:05:44.613Z,3.17
2018-10-01T21:08:13.156Z,2.70
2018-10-01T21:10:46.694Z,2.20
2018-10-01T21:13:15.163Z,2.53
2018-10-01T21:15:48.115Z,2.80
2018-10-01T21:18:16.592Z,2.70
2018-10-01T21:20:45.189Z,2.60
2018-10-01T21:23:13.733Z,2.60
2018-10-01T21:25:42.225Z,2.70
2018-10-01T21:28:10.659Z,2.87
2018-10-01T21:30:39.159Z,2.67
2018-10-01T21:33:07.384Z,2.77
2018-10-01T21:35:36.154Z,2.57
2018-10-01T21:38:04.382Z,2.97
2018-10-01T21:40:32.887Z,1.77
2018-10-01T21:43:05.647Z,2.50
2018-10-01T21:45:34.155Z,2.17
2018-10-01T21:48:06.531Z,4.00
2018-10-01T21:50:35.273Z,3.20
2018-10-01T21:53:03.493Z,2.03
2018-10-01T21:55:31.697Z,2.27
2018-10-01T21:58:00.123Z,2.30
2018-10-01T22:00:32.625Z,2.30
2018-10-01T22:03:00.797Z,1.83
2018-10-01T22:05:30.294Z,1.70
2018-10-01T22:07:58.742Z,2.20
2018-10-01T22:10:27.232Z,2.20
2018-10-01T22:12:56.600Z,2.27
2018-10-01T22:15:27.255Z,1.67
2018-10-01T22:17:56.659Z,2.20
2018-10-01T22:20:26.627Z,2.53
2018-10-01T22:22:54.825Z,2.40
2018-10-01T22:25:27.232Z,2.03
2018-10-01T22:27:55.974Z,2.37
2018-10-01T22:30:29.752Z,2.17
2018-10-01T22:32:58.465Z,1.80
2018-10-01T22:35:33.661Z,2.30
2018-10-01T22:38:02.201Z,2.00
2018-10-01T22:40:36.306Z,2.40
2018-10-01T22:43:04.513Z,2.63
2018-10-01T22:45:37.057Z,2.50
2018-10-01T22:48:05.830Z,2.87
2018-10-01T22:50:38.430Z,2.27
2018-10-01T22:53:06.992Z,2.50
2018-10-01T22:55:35.662Z,2.73
2018-10-01T22:58:07.605Z,3.17
2018-10-01T23:00:36.161Z,3.20
2018-10-01T23:03:04.919Z,3.03
2018-10-01T23:05:33.098Z,3.00
2018-10-01T23:08:01.610Z,3.00
2018-10-01T23:10:30.081Z,2.70
2018-10-01T23:12:58.304Z,2.57
2018-10-01T23:15:26.805Z,2.23
2018-10-01T23:17:55.588Z,2.53
2018-10-01T23:20:24.074Z,4.07
2018-10-01T23:22:56.605Z,1.90
2018-10-01T23:25:25.388Z,2.77
2018-10-01T23:27:53.593Z,2.37
2018-10-01T23:30:21.857Z,2.60
2018-10-01T23:32:50.642Z,2.50
2018-10-01T23:35:19.164Z,2.80
2018-10-01T23:37:48.247Z,3.40
2018-10-01T23:40:16.729Z,2.60
2018-10-01T23:42:45.265Z,2.73
2018-10-01T23:45:13.789Z,2.37
2018-10-01T23:47:42.591Z,3.30
2018-10-01T23:50:14.172Z,2.37
2018-10-01T23:52:42.700Z,2.50
2018-10-01T23:55:15.419Z,2.27
2018-10-01T23:57:43.948Z,2.57
